Time;durP1;ratioP1;P1;durP2;ratioP2;P2;SDS_P1;SDS_P2;PMS_P1;PMS_P2;Temp;Humidity;BMP_temperature;BMP_pressure;BME280_temperature;BME280_humidity;BME280_pressure;Samples;Min_cycle;Max_cycle;Signal;HPM_P1;HPM_P2
2023/12/04 00:00:12;;;;;;;28.85;18.02;;;;;;;-0.59;100.00;101271.78;6245788;22;20095;-81
2023/12/04 00:02:38;;;;;;;29.42;17.77;;;;;;;-0.47;100.00;101288.63;6246055;22;20036;-82
2023/12/04 00:05:05;;;;;;;30.85;18.27;;;;;;;-0.51;100.00;101287.78;6245642;22;20333;-82
2023/12/04 00:07:31;;;;;;;28.10;17.48;;;;;;;-0.34;100.00;101298.59;6245519;22;20380;-82
2023/12/04 00:09:56;;;;;;;30.38;17.73;;;;;;;-0.44;100.00;101284.34;6245743;22;20053;-80
2023/12/04 00:12:22;;;;;;;30.48;17.08;;;;;;;-0.51;100.00;101274.25;6246022;22;19996;-81
2023/12/04 00:14:47;;;;;;;27.98;17.63;;;;;;;-0.29;100.00;101301.13;6244299;23;20000;-81
2023/12/04 00:17:12;;;;;;;28.77;17.55;;;;;;;-0.25;100.00;101296.84;6245799;22;20425;-83
2023/12/04 00:19:38;;;;;;;29.33;17.58;;;;;;;-0.24;100.00;101293.44;6245634;22;20000;-82
2023/12/04 00:22:03;;;;;;;29.17;15.80;;;;;;;-0.48;100.00;101254.78;6245173;22;20062;-82
2023/12/04 00:24:28;;;;;;;31.70;17.48;;;;;;;-0.21;100.00;101290.84;6245458;22;20039;-82
2023/12/04 00:26:54;;;;;;;27.30;17.35;;;;;;;-0.49;100.00;101230.28;6245904;22;20000;-82
2023/12/04 00:29:19;;;;;;;26.42;16.30;;;;;;;-0.18;100.00;101284.06;6243967;23;20034;-82
2023/12/04 00:31:45;;;;;;;27.33;15.95;;;;;;;-0.16;100.00;101291.66;6244211;23;20000;-82
2023/12/04 00:34:12;;;;;;;31.42;17.42;;;;;;;-0.25;100.00;101267.22;6245598;22;20054;-82
2023/12/04 00:36:37;;;;;;;29.83;17.63;;;;;;;-0.57;100.00;101204.16;6245459;22;20019;-83
2023/12/04 00:39:03;;;;;;;29.55;17.05;;;;;;;-0.10;100.00;101279.75;6245644;22;20007;-83
2023/12/04 00:41:29;;;;;;;27.13;16.65;;;;;;;-0.31;100.00;101234.28;6245068;22;20004;-83
2023/12/04 00:43:54;;;;;;;27.30;16.90;;;;;;;-0.09;100.00;101267.91;6245692;22;20035;-83
2023/12/04 00:46:20;;;;;;;26.02;16.38;;;;;;;-0.07;100.00;101266.16;6245658;22;20001;-83
2023/12/04 00:48:46;;;;;;;27.95;17.42;;;;;;;-0.10;100.00;101274.66;6245392;22;20422;-82
2023/12/04 00:51:11;;;;;;;27.08;16.27;;;;;;;-0.16;100.00;101253.59;6245362;22;20004;-81
2023/12/04 00:53:37;;;;;;;27.05;16.70;;;;;;;-0.12;100.00;101268.75;6245765;22;20007;-82
2023/12/04 00:56:02;;;;;;;27.13;16.35;;;;;;;-0.14;100.00;101260.31;6246058;22;20004;-83
2023/12/04 00:58:27;;;;;;;26.67;16.50;;;;;;;-0.15;100.00;101253.56;6245784;22;20020;-83
2023/12/04 01:00:53;;;;;;;26.13;16.50;;;;;;;-0.36;100.00;101218.28;6245288;22;20008;-83
2023/12/04 01:03:18;;;;;;;26.10;16.45;;;;;;;-0.18;100.00;101250.22;6245860;22;20023;-82
2023/12/04 01:08:54;;;;;;;28.85;16.88;;;;;;;-1.47;100.00;101042.91;6245142;23;20022;-82
2023/12/04 01:15:34;;;;;;;24.35;15.40;;;;;;;-2.00;100.00;100964.94;6245511;23;20026;-82
2023/12/04 01:18:24;;;;;;;25.55;16.08;;;;;;;-0.25;100.00;101238.47;6139812;23;20107;-82
2023/12/04 01:23:52;;;;;;;28.20;16.40;;;;;;;-1.93;100.00;100964.88;6245058;23;20449;-83
2023/12/04 01:26:19;;;;;;;27.75;16.27;;;;;;;-0.42;100.00;101209.03;6245443;22;20389;-82
2023/12/04 01:28:44;;;;;;;25.33;15.30;;;;;;;-0.27;100.00;101228.34;6245019;22;20000;-83
2023/12/04 01:31:09;;;;;;;26.20;15.70;;;;;;;-0.33;100.00;101216.56;6245473;22;20004;-83
2023/12/04 01:33:35;;;;;;;25.92;15.80;;;;;;;-0.27;100.00;101227.50;6245079;22;20007;-81
2023/12/04 01:36:02;;;;;;;29.05;17.00;;;;;;;-0.23;100.00;101224.06;6245270;22;20107;-82
2023/12/04 01:38:27;;;;;;;26.20;15.73;;;;;;;-0.26;100.00;101216.50;6244885;22;20011;-83
2023/12/04 01:40:53;;;;;;;27.90;16.50;;;;;;;-0.51;100.00;101173.63;6243565;23;20079;-83
2023/12/04 01:43:18;;;;;;;26.65;16.08;;;;;;;-0.30;100.00;101201.28;6245199;22;20011;-82
2023/12/04 01:45:44;;;;;;;26.67;16.63;;;;;;;-0.17;100.00;101221.44;6243559;23;20015;-82
2023/12/04 01:48:11;;;;;;;26.75;15.73;;;;;;;-0.17;100.00;101218.91;6245793;22;20011;-82
2023/12/04 01:50:37;;;;;;;27.10;16.00;;;;;;;-0.22;100.00;101203.72;6245518;22;20011;-83
2023/12/04 01:53:03;;;;;;;24.40;14.93;;;;;;;-0.15;100.00;101217.19;6245493;22;20015;-82
2023/12/04 01:55:29;;;;;;;27.08;15.18;;;;;;;-0.26;100.00;101194.50;6245398;22;20000;-82
2023/12/04 01:57:56;;;;;;;24.08;14.93;;;;;;;-0.14;100.00;101207.00;6268835;22;20017;-82
2023/12/04 02:00:21;;;;;;;25.05;14.73;;;;;;;-0.14;100.00;101213.78;6246217;22;20429;-83
2023/12/04 02:02:47;;;;;;;25.60;15.07;;;;;;;-0.36;100.00;101168.38;6246646;22;20008;-81
2023/12/04 02:05:14;;;;;;;26.83;15.18;;;;;;;-0.14;100.00;101198.56;6247091;22;20015;-84
2023/12/04 02:08:10;;;;;;;24.83;14.93;;;;;;;-0.12;100.00;101197.69;6248248;22;20012;-83
2023/12/04 02:10:39;;;;;;;24.13;15.25;;;;;;;-1.72;100.00;100925.84;6245000;23;20417;-83
2023/12/04 02:13:14;;;;;;;25.25;15.57;;;;;;;-1.03;100.00;101036.50;6245238;23;20004;-83
2023/12/04 02:15:51;;;;;;;23.92;14.82;;;;;;;-0.77;100.00;101069.16;6246811;22;20039;-82
2023/12/04 02:18:22;;;;;;;23.63;14.52;;;;;;;-0.79;100.00;101081.81;6246475;22;20058;-82
2023/12/04 02:20:57;;;;;;;23.90;14.07;;;;;;;-1.11;100.00;101011.25;6246686;22;20000;-83
2023/12/04 02:23:23;;;;;;;24.38;14.10;;;;;;;-1.73;100.00;100914.03;6244544;23;20020;-83
2023/12/04 02:26:29;;;;;;;25.30;14.95;;;;;;;-0.12;100.00;101169.75;6246691;22;20311;-83
2023/12/04 02:29:13;;;;;;;23.73;14.48;;;;;;;-0.98;100.00;101035.59;6246726;22;20012;-83
2023/12/04 02:31:41;;;;;;;23.27;14.32;;;;;;;-0.69;100.00;101070.75;6246503;22;20000;-82
2023/12/04 02:34:08;;;;;;;23.27;14.02;;;;;;;-0.12;100.00;101166.38;6246591;22;20415;-83
2023/12/04 02:40:11;;;;;;;24.40;14.00;;;;;;;-1.89;100.00;100866.97;6246444;23;20023;-83
2023/12/04 02:45:57;;;;;;;22.05;13.40;;;;;;;-1.60;100.00;100900.38;6246587;23;20030;-82
2023/12/04 02:48:23;;;;;;;22.02;13.32;;;;;;;-1.33;100.00;100949.03;6246409;22;20411;-82
2023/12/04 02:50:48;;;;;;;25.02;14.38;;;;;;;-1.40;100.00;100939.81;6246494;22;20303;-82
2023/12/04 02:53:41;;;;;;;20.90;13.35;;;;;;;-0.12;100.00;101131.69;6246765;22;20488;-81
2023/12/04 02:56:40;;;;;;;24.58;13.63;;;;;;;-0.11;100.00;101133.34;6246493;22;20004;-80
2023/12/04 03:13:07;;;;;;;22.27;12.73;;;;;;;-1.75;100.00;100857.53;6245832;23;20115;-83
2023/12/04 03:15:41;;;;;;;19.35;12.05;;;;;;;-1.76;100.00;100855.88;6246315;23;20315;-84
2023/12/04 03:18:06;;;;;;;22.65;13.00;;;;;;;-1.05;100.00;100964.72;6246214;22;20369;-84
2023/12/04 03:20:38;;;;;;;20.83;12.75;;;;;;;-1.22;100.00;100942.97;6246211;22;20007;-84
2023/12/04 03:23:03;;;;;;;22.42;13.20;;;;;;;-0.32;100.00;101080.38;6246977;22;20294;-85
2023/12/04 03:25:35;;;;;;;21.77;13.00;;;;;;;-1.12;100.00;100946.22;6246878;22;20004;-82
2023/12/04 03:28:00;;;;;;;22.50;13.18;;;;;;;-1.13;100.00;100949.63;6245825;22;20000;-86
2023/12/04 03:30:25;;;;;;;21.17;13.05;;;;;;;-0.28;100.00;101089.63;6245154;23;20000;-86
2023/12/04 03:32:51;;;;;;;22.77;13.02;;;;;;;-0.76;100.00;101008.28;6245051;22;20474;-83
2023/12/04 03:38:01;;;;;;;19.98;12.63;;;;;;;-1.00;100.00;100961.25;6222641;23;20031;-85
2023/12/04 03:40:30;;;;;;;21.35;12.25;;;;;;;-0.56;100.00;101028.28;6246120;22;20000;-84
2023/12/04 03:42:55;;;;;;;22.52;13.40;;;;;;;-0.32;100.00;101057.53;6246154;22;20004;-84
2023/12/04 03:45:20;;;;;;;20.15;11.93;;;;;;;-0.33;100.00;101051.63;6246187;22;20000;-85
2023/12/04 03:47:46;;;;;;;20.23;12.70;;;;;;;-0.61;100.00;101010.59;6246029;22;20008;-85
2023/12/04 03:50:11;;;;;;;21.13;11.77;;;;;;;-0.33;100.00;101053.31;6246218;22;20004;-85
2023/12/04 03:52:36;;;;;;;19.05;11.80;;;;;;;-0.33;100.00;101046.53;6245450;22;20083;-85
2023/12/04 03:55:02;;;;;;;19.95;11.95;;;;;;;-0.57;100.00;100998.72;6245441;22;20007;-85
2023/12/04 03:57:32;;;;;;;19.35;12.27;;;;;;;-0.32;100.00;101038.06;6245085;22;20004;-86
2023/12/04 04:00:09;;;;;;;19.33;12.07;;;;;;;-0.69;100.00;100976.91;6245897;22;20008;-85
2023/12/04 04:02:34;;;;;;;19.30;12.32;;;;;;;-0.51;100.00;101006.22;6245244;22;20388;-84
2023/12/04 04:04:59;;;;;;;19.90;12.63;;;;;;;-0.63;100.00;100984.41;6245130;22;20004;-84
2023/12/04 04:10:59;;;;;;;20.73;11.95;;;;;;;-1.89;100.00;100765.75;6215521;23;20357;-84
2023/12/04 04:16:46;;;;;;;22.05;12.13;;;;;;;-1.52;100.00;100835.28;6245738;23;20130;-85
2023/12/04 04:19:48;;;;;;;19.50;12.65;;;;;;;-0.34;100.00;101024.56;6245862;23;20004;-84
2023/12/04 04:22:20;;;;;;;20.05;11.93;;;;;;;-2.04;100.00;100734.72;6243771;23;20087;-84
2023/12/04 04:25:16;;;;;;;;;;;;;;;-0.34;100.00;101014.41;6246270;23;20003;-85
2023/12/04 04:27:53;;;;;;;15.90;10.02;;;;;;;-0.93;100.00;100922.31;6245297;23;19910;-85
2023/12/04 04:30:31;;;;;;;19.73;12.15;;;;;;;-2.11;100.00;100727.22;6245409;23;20378;-86
2023/12/04 04:33:27;;;;;;;18.58;12.25;;;;;;;-0.42;100.00;101002.72;6218073;23;20007;-85
2023/12/04 04:36:39;;;;;;;18.75;11.40;;;;;;;-0.44;100.00;100995.13;6245415;23;20480;-85
2023/12/04 04:42:48;;;;;;;19.35;11.85;;;;;;;-0.45;100.00;100996.00;6245269;23;20023;-84
2023/12/04 04:55:41;;;;;;;18.85;11.23;;;;;;;-0.97;100.00;100885.19;6245625;23;20058;-86
2023/12/04 05:05:01;;;;;;;;;;;;;;;-0.27;100.00;100981.34;6187718;23;20345;-85
2023/12/04 05:14:10;;;;;;;19.50;11.55;;;;;;;-0.27;100.00;100981.34;6274729;22;20069;-83
2023/12/04 05:16:42;;;;;;;18.98;12.23;;;;;;;-1.17;100.00;100841.56;6155302;23;20108;-84
2023/12/04 05:19:29;;;;;;;;;;;;;;;-0.22;100.00;100979.56;6155457;23;20009;-85
2023/12/04 05:22:07;;;;;;;19.75;11.50;;;;;;;-1.89;100.00;100702.47;6177679;23;19940;-82
2023/12/04 05:24:33;;;;;;;19.73;12.13;;;;;;;-0.23;100.00;100967.75;6129372;23;20016;-86
2023/12/04 05:26:58;;;;;;;16.92;10.85;;;;;;;-0.23;100.00;100968.56;6155354;23;20399;-86
2023/12/04 05:29:23;;;;;;;18.75;12.57;;;;;;;-0.21;100.00;100959.22;6154497;23;20008;-82
2023/12/04 05:31:49;;;;;;;18.58;11.65;;;;;;;-0.39;100.00;100917.25;6154763;23;20487;-85
2023/12/04 05:34:14;;;;;;;18.85;11.88;;;;;;;-0.19;100.00;100946.53;6153739;23;20088;-85
2023/12/04 05:36:39;;;;;;;17.35;11.48;;;;;;;-0.17;100.00;100947.34;6156834;23;20006;-86
2023/12/04 05:39:05;;;;;;;19.65;11.27;;;;;;;-0.16;100.00;100944.78;6157300;23;20613;-86
2023/12/04 05:41:30;;;;;;;20.38;12.07;;;;;;;-0.16;100.00;100937.16;6157233;23;20372;-87
2023/12/04 05:43:56;;;;;;;18.65;11.25;;;;;;;-0.30;100.00;100914.53;6156706;23;20006;-85
2023/12/04 05:46:21;;;;;;;16.65;10.73;;;;;;;-0.17;100.00;100935.50;6156798;23;20006;-82
2023/12/04 05:48:47;;;;;;;20.27;11.57;;;;;;;-0.38;100.00;100910.50;6156161;23;20029;-82
2023/12/04 05:51:12;;;;;;;16.67;11.30;;;;;;;-0.30;100.00;100918.78;6131126;23;20010;-82
2023/12/04 05:53:38;;;;;;;17.88;11.43;;;;;;;-0.16;100.00;100938.88;6157166;23;20016;-82
2023/12/04 05:56:05;;;;;;;19.02;10.98;;;;;;;-0.27;100.00;100926.38;6157178;23;20319;-85
2023/12/04 05:58:30;;;;;;;17.38;11.25;;;;;;;-0.14;100.00;100940.50;6157011;23;20053;-82
2023/12/04 06:00:55;;;;;;;18.45;10.85;;;;;;;-0.14;100.00;100939.69;6156385;23;20006;-79
2023/12/04 06:03:21;;;;;;;17.75;11.00;;;;;;;-0.51;100.00;100878.56;6157042;23;20006;-80
2023/12/04 06:05:46;;;;;;;16.95;11.23;;;;;;;-0.11;100.00;100930.28;6156830;23;20020;-84
2023/12/04 06:08:12;;;;;;;16.73;10.60;;;;;;;-0.10;100.00;100931.13;6155349;23;20034;-81
2023/12/04 06:10:37;;;;;;;15.00;10.30;;;;;;;-0.49;100.00;100866.69;6157083;23;20416;-80
2023/12/04 06:13:02;;;;;;;17.92;11.10;;;;;;;-0.10;100.00;100926.91;6155147;23;20080;-84
2023/12/04 06:15:28;;;;;;;15.75;10.15;;;;;;;-0.18;100.00;100917.75;6156274;23;20033;-83
2023/12/04 06:17:53;;;;;;;16.58;10.75;;;;;;;-0.20;100.00;100904.25;6154722;23;20001;-81
2023/12/04 06:20:19;;;;;;;16.63;10.60;;;;;;;-0.41;100.00;100867.38;6156595;23;20002;-83
2023/12/04 06:22:44;;;;;;;15.48;10.43;;;;;;;-0.13;100.00;100904.09;6156370;23;20017;-82
2023/12/04 06:25:10;;;;;;;14.88;9.77;;;;;;;-0.12;100.00;100897.34;6156664;23;20084;-80
2023/12/04 06:27:36;;;;;;;15.73;10.20;;;;;;;-0.13;100.00;100893.97;6159745;23;20002;-87
2023/12/04 06:30:02;;;;;;;16.42;10.80;;;;;;;-0.47;100.00;100826.94;6157445;23;20056;-85
2023/12/04 06:32:30;;;;;;;14.65;10.70;;;;;;;-0.20;100.00;100868.72;6156281;23;20339;-85
2023/12/04 06:34:56;;;;;;;16.55;10.27;;;;;;;-0.25;100.00;100851.03;6161486;23;20001;-93
2023/12/04 06:37:21;;;;;;;16.02;10.40;;;;;;;-0.53;100.00;100809.28;6165391;23;20060;-81
2023/12/04 06:39:48;;;;;;;15.95;10.10;;;;;;;-0.45;100.00;100815.03;6136735;23;20029;-89
2023/12/04 06:58:19;;;;;;;;;;;;;;;;;;;;;
2023/12/04 07:01:09;;;;;;;14.13;10.13;;;;;;;-0.05;100.00;100846.44;6279679;22;20082;-90
2023/12/04 07:03:43;;;;;;;14.88;9.52;;;;;;;-1.47;100.00;100630.13;6278287;22;20028;-88
2023/12/04 07:20:43;;;;;;;13.60;8.20;;;;;;;-1.63;100.00;100586.47;6253129;22;20024;-86
2023/12/04 07:33:34;;;;;;;12.55;8.15;;;;;;;-0.02;100.00;100851.44;6215480;23;20460;-85
2023/12/04 07:36:07;;;;;;;13.48;8.05;;;;;;;-1.24;100.00;100649.97;6215274;23;20019;-91
2023/12/04 07:38:54;;;;;;;13.00;8.60;;;;;;;0.00;100.00;100856.50;6224553;22;20086;-90
2023/12/04 07:41:19;;;;;;;11.93;7.45;;;;;;;-0.56;100.00;100751.84;6212988;23;20020;-88
2023/12/04 07:46:49;;;;;;;12.43;7.80;;;;;;;0.04;100.00;100847.13;6243726;22;20043;-86
2023/12/04 07:49:14;;;;;;;13.68;8.57;;;;;;;-1.33;100.00;100634.94;6245510;23;20247;-79
2023/12/04 07:55:15;;;;;;;13.13;8.77;;;;;;;-1.60;100.00;100572.94;6245652;23;20034;-86
2023/12/04 08:01:44;;;;;;;;;;;;;;;;;;;;;
2023/12/04 08:07:29;;;;;;;11.35;7.47;;;;;;;0.06;100.00;100827.63;6191721;22;20029;-91
2023/12/04 08:32:40;;;;;;;11.98;7.70;;;;;;;0.24;100.00;100797.63;6219276;22;20031;-81
2023/12/04 09:01:25;;;;;;;11.83;7.70;;;;;;;0.49;100.00;100764.91;6232626;22;20357;-78
2023/12/04 09:12:13;;;;;;;12.00;8.02;;;;;;;0.60;100.00;100753.66;6249643;22;20083;-78
2023/12/04 10:13:02;;;;;;;15.60;8.30;;;;;;;-0.31;100.00;100481.53;6182905;23;20380;-84
2023/12/04 10:15:46;;;;;;;12.05;8.27;;;;;;;-0.25;100.00;100488.19;6183559;23;20332;-79
2023/12/04 10:21:34;;;;;;;13.43;9.00;;;;;;;0.57;100.00;100632.59;6183216;23;20096;-76
2023/12/04 10:24:03;;;;;;;12.10;8.40;;;;;;;1.10;100.00;100710.03;6183242;23;20005;-79
2023/12/04 10:27:12;;;;;;;16.25;8.95;;;;;;;1.28;100.00;100721.44;6183427;23;20013;-82
2023/12/04 10:30:08;;;;;;;13.90;9.15;;;;;;;1.35;100.00;100707.66;6158177;22;20017;-78
2023/12/04 10:40:12;;;;;;;14.18;9.75;;;;;;;1.59;100.00;100678.19;6183376;23;20044;-78
2023/12/04 10:42:44;;;;;;;14.52;9.57;;;;;;;0.09;100.00;100423.88;6183098;23;20005;-78
2023/12/04 10:45:38;;;;;;;14.45;9.50;;;;;;;0.78;100.00;100532.91;6183238;23;20009;-84
2023/12/04 10:48:08;;;;;;;13.95;10.10;;;;;;;1.32;100.00;100605.19;6183354;23;20012;-77
2023/12/04 10:50:39;;;;;;;15.27;10.30;;;;;;;1.16;100.00;100569.16;6256538;22;20015;-83
2023/12/04 11:02:26;;;;;;;15.40;10.85;;;;;;;0.94;100.00;100482.50;6123194;23;20010;-79
2023/12/04 11:21:58;;;;;;;14.27;9.98;;;;;;;1.17;100.00;100440.28;6236898;22;20382;-78
2023/12/04 11:32:21;;;;;;;15.27;9.85;;;;;;;2.42;100.00;100600.06;6247077;22;20031;-84
2023/12/04 11:52:57;;;;;;;15.63;9.63;;;;;;;2.35;100.00;100569.75;6215028;23;20472;-79
2023/12/04 12:10:38;;;;;;;13.80;9.70;;;;;;;0.85;100.00;100317.53;6251682;22;20024;-85
2023/12/04 12:13:40;;;;;;;12.70;9.65;;;;;;;2.10;100.00;100526.41;6245947;23;20018;-86
2023/12/04 12:20:07;;;;;;;15.07;10.38;;;;;;;1.95;100.00;100512.47;6245190;23;19908;-87
2023/12/04 12:22:34;;;;;;;14.20;9.75;;;;;;;1.80;100.00;100495.97;6249490;22;20385;-79
2023/12/04 12:31:14;;;;;;;15.93;9.95;;;;;;;1.84;100.00;100478.88;6247104;22;20050;-79
2023/12/04 12:34:02;;;;;;;13.75;9.32;;;;;;;1.80;100.00;100474.78;6275883;22;20441;-79
2023/12/04 12:37:05;;;;;;;13.02;9.10;;;;;;;1.72;100.00;100473.31;6274040;22;20077;-83
2023/12/04 12:39:31;;;;;;;14.75;9.32;;;;;;;0.74;100.00;100310.25;6276050;22;20008;-80
2023/12/04 12:45:06;;;;;;;16.10;10.38;;;;;;;1.73;100.00;100466.50;6261844;22;20041;-80
2023/12/04 12:47:34;;;;;;;15.73;9.48;;;;;;;1.72;100.00;100463.13;6215136;23;20024;-80
2023/12/04 12:50:01;;;;;;;17.13;10.23;;;;;;;1.46;100.00;100434.28;6215110;23;20342;-81
2023/12/04 12:52:26;;;;;;;14.48;9.85;;;;;;;1.24;100.00;100396.81;6215117;23;20442;-81
2023/12/04 12:54:52;;;;;;;13.55;9.02;;;;;;;1.59;100.00;100446.59;6215209;23;20013;-82
2023/12/04 12:57:17;;;;;;;14.82;10.25;;;;;;;1.67;100.00;100467.56;6244831;23;20004;-81
2023/12/04 12:59:46;;;;;;;16.25;10.80;;;;;;;1.51;100.00;100424.81;6246219;23;20082;-80
2023/12/04 13:02:11;;;;;;;16.17;10.38;;;;;;;1.75;100.00;100458.81;6244802;23;20442;-80
2023/12/04 13:04:40;;;;;;;15.00;10.38;;;;;;;1.72;100.00;100447.03;6245822;23;20046;-85
2023/12/04 13:07:08;;;;;;;16.70;11.32;;;;;;;1.82;100.00;100448.38;6245143;23;20000;-86
2023/12/04 13:09:37;;;;;;;15.10;10.27;;;;;;;1.63;100.00;100404.88;6219822;23;20377;-80
2023/12/04 13:12:06;;;;;;;17.48;10.63;;;;;;;1.76;100.00;100400.22;6245097;23;20446;-83
2023/12/04 13:14:34;;;;;;;14.07;9.73;;;;;;;1.98;100.00;100431.72;6246757;23;20130;-92
2023/12/04 13:25:47;;;;;;;13.48;8.55;;;;;;;0.32;100.00;100167.63;6279458;22;20340;-89
2023/12/04 13:32:09;;;;;;;14.00;9.57;;;;;;;1.87;100.00;100403.25;6276216;22;20038;-91
2023/12/04 13:34:35;;;;;;;14.63;9.82;;;;;;;1.30;100.00;100311.88;6277235;22;20371;-85
2023/12/04 13:38:20;;;;;;;13.15;9.32;;;;;;;0.33;100.00;100156.59;6276621;22;20072;-80
2023/12/04 13:40:59;;;;;;;15.70;10.50;;;;;;;1.75;100.00;100370.56;6276064;22;20030;-86
2023/12/04 13:46:24;;;;;;;13.85;9.40;;;;;;;0.89;100.00;100235.25;6255240;22;20137;-80
2023/12/04 13:49:40;;;;;;;13.07;8.85;;;;;;;1.86;100.00;100385.47;6249697;22;20004;-84
2023/12/04 13:52:21;;;;;;;13.25;9.23;;;;;;;0.28;100.00;100121.16;6181449;23;20028;-81
2023/12/04 13:58:45;;;;;;;14.55;8.95;;;;;;;1.79;100.00;100361.94;6183522;23;20020;-87
2023/12/04 14:01:28;;;;;;;12.77;9.07;;;;;;;1.10;100.00;100249.78;6183607;23;20009;-78
2023/12/04 14:04:01;;;;;;;12.95;8.93;;;;;;;1.14;100.00;100256.41;6183781;23;20036;-80
2023/12/04 14:06:29;;;;;;;14.50;9.32;;;;;;;1.66;100.00;100336.06;6182207;23;20316;-81
2023/12/04 14:08:56;;;;;;;14.75;8.77;;;;;;;1.62;100.00;100320.97;6184250;23;20019;-79
2023/12/04 14:11:22;;;;;;;12.23;8.70;;;;;;;1.34;100.00;100267.63;6159237;23;20012;-76
2023/12/04 14:13:51;;;;;;;14.48;9.35;;;;;;;1.70;100.00;100327.44;6183714;23;20096;-79
2023/12/04 14:16:16;;;;;;;13.27;8.55;;;;;;;1.65;100.00;100326.75;6183507;23;20048;-79
2023/12/04 14:18:42;;;;;;;12.50;8.65;;;;;;;1.61;100.00;100321.84;6183747;23;20005;-86
2023/12/04 14:21:10;;;;;;;14.15;9.20;;;;;;;1.22;100.00;100257.88;6183576;23;20013;-85
2023/12/04 14:23:35;;;;;;;15.75;10.07;;;;;;;1.05;100.00;100236.38;6183560;23;20446;-82
2023/12/04 14:26:04;;;;;;;13.40;9.18;;;;;;;1.49;100.00;100307.00;6183791;23;20033;-80
2023/12/04 14:28:29;;;;;;;15.43;10.48;;;;;;;1.50;100.00;100309.50;6183773;23;20011;-83
2023/12/04 15:21:48;;;;;;;19.55;13.85;;;;;;;0.99;100.00;100289.16;6123825;23;20021;-85
2023/12/04 15:24:44;;;;;;;17.83;13.23;;;;;;;0.96;100.00;100284.16;6123573;23;20527;-85
2023/12/04 15:41:26;;;;;;;;;;;;;;;;;;;;;
2023/12/04 15:44:42;;;;;;;19.60;13.40;;;;;;;0.81;100.00;100255.81;6217474;23;20489;-83
2023/12/04 15:50:03;;;;;;;20.98;13.80;;;;;;;-0.32;100.00;100071.44;6247779;22;20028;-88
2023/12/04 15:56:04;;;;;;;19.00;13.90;;;;;;;-0.33;100.00;100061.34;6246292;23;20536;-84
2023/12/04 16:02:32;;;;;;;22.80;14.98;;;;;;;0.78;100.00;100234.72;6276305;22;20023;-81
2023/12/04 16:05:23;;;;;;;19.80;15.10;;;;;;;0.77;100.00;100226.28;6275977;22;20000;-80
2023/12/04 16:08:13;;;;;;;20.60;13.93;;;;;;;0.75;100.00;100229.75;6276389;22;20070;-80
2023/12/04 16:10:42;;;;;;;21.25;14.55;;;;;;;-0.78;100.00;99988.34;6247547;22;20051;-78
2023/12/04 16:13:10;;;;;;;18.23;13.40;;;;;;;-0.22;100.00;100082.13;6276175;22;20004;-78
2023/12/04 16:15:36;;;;;;;21.27;14.60;;;;;;;0.74;100.00;100233.19;6276431;22;20524;-76
2023/12/04 16:18:05;;;;;;;20.38;14.77;;;;;;;0.64;100.00;100217.41;6248420;22;20007;-82
2023/12/04 16:20:31;;;;;;;20.75;14.75;;;;;;;0.75;100.00;100222.97;6276640;22;20325;-77
2023/12/04 16:22:56;;;;;;;20.63;14.82;;;;;;;0.75;100.00;100217.88;6275709;22;20011;-76
2023/12/04 16:25:22;;;;;;;21.45;15.20;;;;;;;0.73;100.00;100217.09;6276407;22;20003;-82
2023/12/04 16:27:48;;;;;;;21.50;15.55;;;;;;;0.72;100.00;100212.06;6273001;22;20004;-77
2023/12/04 16:30:14;;;;;;;21.38;14.98;;;;;;;0.63;100.00;100202.22;6276412;22;20333;-76
2023/12/04 16:32:40;;;;;;;23.23;15.65;;;;;;;0.61;100.00;100199.72;6276389;22;20008;-76
2023/12/04 16:35:06;;;;;;;22.52;16.17;;;;;;;0.53;100.00;100192.34;6276049;22;20007;-81
2023/12/04 16:37:31;;;;;;;23.73;16.00;;;;;;;0.48;100.00;100184.03;6276200;22;20004;-77
2023/12/04 16:39:57;;;;;;;20.35;15.95;;;;;;;0.36;100.00;100168.34;6273259;22;20007;-80
2023/12/04 16:42:22;;;;;;;23.85;16.13;;;;;;;0.43;100.00;100179.97;6275792;22;20005;-85
2023/12/04 16:44:48;;;;;;;23.52;16.73;;;;;;;0.34;100.00;100163.31;6276104;22;20054;-85
2023/12/04 16:47:16;;;;;;;23.60;16.70;;;;;;;0.48;100.00;100186.56;6276113;22;20015;-85
2023/12/04 16:49:41;;;;;;;23.13;16.48;;;;;;;0.31;100.00;100157.53;6275875;22;20334;-79
2023/12/04 16:52:06;;;;;;;26.38;18.08;;;;;;;0.38;100.00;100171.66;6275799;22;20003;-76
2023/12/04 16:54:32;;;;;;;24.63;17.38;;;;;;;0.48;100.00;100188.28;6275405;22;20061;-84
2023/12/04 16:59:31;;;;;;;22.90;17.23;;;;;;;-0.99;100.00;99936.56;6248506;22;20054;-83
2023/12/04 18:56:34;;;;;;;28.20;21.80;;;;;;;-0.19;100.00;99957.75;6272402;22;20058;-86
2023/12/04 18:59:01;;;;;;;28.85;22.63;;;;;;;-0.01;100.00;99974.88;6253873;22;20035;-86
2023/12/04 19:01:35;;;;;;;28.10;22.15;;;;;;;0.10;100.00;99992.31;6246642;23;20067;-88
2023/12/04 19:07:17;;;;;;;28.80;22.73;;;;;;;0.45;100.00;100052.03;6121664;23;20074;-85
2023/12/04 19:10:13;;;;;;;29.02;22.48;;;;;;;0.48;100.00;100051.09;6247198;22;20004;-80
2023/12/04 19:12:51;;;;;;;30.88;23.35;;;;;;;-0.98;100.00;99800.59;6246351;23;20430;-93
2023/12/04 19:15:19;;;;;;;32.05;24.95;;;;;;;-0.09;100.00;99946.41;6248792;23;20307;-91
2023/12/04 19:17:45;;;;;;;30.63;24.38;;;;;;;-0.72;100.00;99845.34;6249024;22;20023;-94
2023/12/04 19:20:11;;;;;;;30.00;23.00;;;;;;;0.53;100.00;100049.25;6248959;23;20027;-92
2023/12/04 19:22:36;;;;;;;31.45;23.63;;;;;;;0.00;100.00;99950.34;6251441;22;19999;-92
2023/12/04 19:25:39;;;;;;;30.52;23.73;;;;;;;0.58;100.00;100037.22;6252453;22;20082;-88
2023/12/04 19:28:31;;;;;;;29.63;23.58;;;;;;;0.56;100.00;100033.91;6246240;23;20058;-86
2023/12/04 19:30:59;;;;;;;29.50;23.58;;;;;;;-0.40;100.00;99880.59;6245143;23;20008;-86
2023/12/04 19:33:40;;;;;;;30.77;23.73;;;;;;;-1.03;100.00;99772.03;6246686;23;20430;-87
2023/12/04 19:40:16;;;;;;;30.25;24.25;;;;;;;0.59;100.00;100028.72;6182258;23;20009;-85
2023/12/04 19:42:42;;;;;;;32.05;23.90;;;;;;;0.09;100.00;99937.31;6182474;23;20020;-87
2023/12/04 19:45:25;;;;;;;30.50;23.35;;;;;;;0.09;100.00;99936.50;6182876;23;20427;-85
2023/12/04 19:48:06;;;;;;;31.30;23.83;;;;;;;0.14;100.00;99944.78;6182827;23;20100;-87
2023/12/04 19:50:31;;;;;;;31.88;24.77;;;;;;;0.02;100.00;99914.75;6197243;22;20111;-88
2023/12/04 19:52:57;;;;;;;31.13;24.77;;;;;;;-0.47;100.00;99835.25;6245714;22;20066;-83
2023/12/04 19:55:26;;;;;;;33.75;25.00;;;;;;;-0.95;100.00;99757.41;6246101;22;20034;-87
2023/12/04 19:58:05;;;;;;;33.63;25.42;;;;;;;0.01;100.00;99916.47;6245975;22;20004;-82
2023/12/04 20:00:32;;;;;;;30.80;24.05;;;;;;;0.07;100.00;99923.84;6245576;22;20000;-90
2023/12/04 20:02:57;;;;;;;30.67;24.73;;;;;;;0.66;100.00;100003.91;6245430;22;20016;-85
2023/12/04 20:05:25;;;;;;;30.10;23.42;;;;;;;0.04;100.00;99905.38;6245721;22;20079;-84
2023/12/04 20:07:51;;;;;;;31.98;24.92;;;;;;;0.41;100.00;99961.63;6245817;22;20050;-84
2023/12/04 20:10:16;;;;;;;32.30;24.42;;;;;;;0.62;100.00;100002.38;6245751;22;20421;-87
2023/12/04 20:12:41;;;;;;;31.30;24.60;;;;;;;0.53;100.00;99980.66;6245983;22;20005;-81
2023/12/04 20:15:09;;;;;;;31.42;23.92;;;;;;;0.60;100.00;99989.75;6245832;22;20058;-85
2023/12/04 20:17:35;;;;;;;33.53;25.08;;;;;;;0.39;100.00;99957.44;6245730;22;20004;-88
2023/12/04 20:20:00;;;;;;;33.17;24.90;;;;;;;0.06;100.00;99901.91;6245540;22;20031;-83
2023/12/04 20:22:25;;;;;;;35.78;26.83;;;;;;;0.62;100.00;99982.88;6245597;22;20036;-85
2023/12/04 20:24:53;;;;;;;34.15;24.83;;;;;;;0.63;100.00;99974.38;6245794;22;20004;-83
2023/12/04 20:27:19;;;;;;;35.53;25.95;;;;;;;0.48;100.00;99964.75;6247062;22;20324;-85
2023/12/04 20:29:45;;;;;;;33.63;25.90;;;;;;;0.56;100.00;99960.22;6245947;22;20083;-82
2023/12/04 20:32:11;;;;;;;34.50;26.25;;;;;;;0.46;100.00;99938.56;6245723;22;20040;-85
2023/12/04 20:34:36;;;;;;;33.90;26.33;;;;;;;0.37;100.00;99919.41;6245944;22;20004;-79
2023/12/04 20:37:02;;;;;;;35.17;26.02;;;;;;;0.66;100.00;99971.72;6245659;22;20046;-84